sensor_id;sensor_type;location;lat;lon;timestamp;pressure;altitude;pressure_sealevel;temperature;humidity
36524;BME280;66329;46.796;9.824;2022-12-29T18:40:59;84402.25;;;23.89;6.89
36524;BME280;66329;46.796;9.824;2022-12-29T18:43:26;84399.44;;;23.99;6.85
36524;BME280;66329;46.796;9.824;2022-12-29T18:45:53;84400.62;;;24.09;6.78
36524;BME280;66329;46.796;9.824;2022-12-29T18:48:20;84403.37;;;24.64;6.65
36524;BME280;66329;46.796;9.824;2022-12-29T18:50:48;84402.76;;;24.73;6.69
36524;BME280;66329;46.796;9.824;2022-12-29T18:53:17;84407.19;;;24.67;6.76
36524;BME280;66329;46.796;9.824;2022-12-29T18:55:46;84409.08;;;25.08;6.82
36524;BME280;66329;46.796;9.824;2022-12-29T18:58:13;84407.47;;;24.63;6.90
36524;BME280;66329;46.796;9.824;2022-12-29T19:00:41;84407.80;;;24.52;6.98
36524;BME280;66329;46.796;9.824;2022-12-29T19:03:10;84408.30;;;24.04;6.97
36524;BME280;66329;46.796;9.824;2022-12-29T19:05:40;84409.29;;;24.99;6.97
36524;BME280;66329;46.796;9.824;2022-12-29T19:08:08;84409.29;;;24.99;6.98
36524;BME280;66329;46.796;9.824;2022-12-29T19:10:36;84407.75;;;24.10;6.98
36524;BME280;66329;46.796;9.824;2022-12-29T19:13:05;84402.85;;;24.19;6.96
36524;BME280;66329;46.796;9.824;2022-12-29T19:15:34;84404.68;;;25.12;6.95
36524;BME280;66329;46.796;9.824;2022-12-29T19:18:03;84401.56;;;24.72;6.92
36524;BME280;66329;46.796;9.824;2022-12-29T19:20:33;84402.93;;;24.69;6.95
36524;BME280;66329;46.796;9.824;2022-12-29T19:23:02;84401.55;;;25.11;6.96
36524;BME280;66329;46.796;9.824;2022-12-29T19:25:30;84397.48;;;24.67;6.98
36524;BME280;66329;46.796;9.824;2022-12-29T19:27:58;84397.81;;;25.03;6.98
36524;BME280;66329;46.796;9.824;2022-12-29T19:30:25;84398.21;;;24.19;6.95
36524;BME280;66329;46.796;9.824;2022-12-29T19:32:54;84393.65;;;24.26;6.92
36524;BME280;66329;46.796;9.824;2022-12-29T19:35:22;84389.20;;;24.80;6.92
36524;BME280;66329;46.796;9.824;2022-12-29T19:37:51;84393.97;;;24.82;6.91
36524;BME280;66329;46.796;9.824;2022-12-29T19:40:20;84394.56;;;25.27;6.92
36524;BME280;66329;46.796;9.824;2022-12-29T19:42:48;84391.99;;;24.32;6.91
36524;BME280;66329;46.796;9.824;2022-12-29T19:45:16;84391.52;;;24.76;6.91
36524;BME280;66329;46.796;9.824;2022-12-29T19:47:43;84390.41;;;24.79;6.91
36524;BME280;66329;46.796;9.824;2022-12-29T19:50:13;84390.32;;;24.34;6.90
36524;BME280;66329;46.796;9.824;2022-12-29T19:52:41;84387.09;;;24.34;6.88
36524;BME280;66329;46.796;9.824;2022-12-29T19:55:12;84387.01;;;24.87;6.89
36524;BME280;66329;46.796;9.824;2022-12-29T19:57:39;84382.51;;;24.38;6.86
36524;BME280;66329;46.796;9.824;2022-12-29T20:00:08;84378.14;;;24.38;6.86
36524;BME280;66329;46.796;9.824;2022-12-29T20:02:35;84380.40;;;24.48;6.86
36524;BME280;66329;46.796;9.824;2022-12-29T20:05:02;84381.30;;;24.39;6.85
36524;BME280;66329;46.796;9.824;2022-12-29T20:07:29;84378.56;;;25.36;6.81
36524;BME280;66329;46.796;9.824;2022-12-29T20:09:56;84377.62;;;25.37;6.81
36524;BME280;66329;46.796;9.824;2022-12-29T20:12:24;84380.13;;;24.38;6.87
36524;BME280;66329;46.796;9.824;2022-12-29T20:14:51;84377.33;;;24.44;6.84
36524;BME280;66329;46.796;9.824;2022-12-29T20:17:18;84381.18;;;24.40;6.85
36524;BME280;66329;46.796;9.824;2022-12-29T20:19:45;84379.01;;;24.41;6.84
36524;BME280;66329;46.796;9.824;2022-12-29T20:22:12;84372.63;;;24.90;6.86
36524;BME280;66329;46.796;9.824;2022-12-29T20:24:39;84371.86;;;24.91;6.87
36524;BME280;66329;46.796;9.824;2022-12-29T20:27:09;84367.11;;;24.45;6.86
36524;BME280;66329;46.796;9.824;2022-12-29T20:29:38;84367.49;;;24.46;6.85
36524;BME280;66329;46.796;9.824;2022-12-29T20:32:07;84364.92;;;24.48;6.85
36524;BME280;66329;46.796;9.824;2022-12-29T20:34:35;84364.51;;;24.42;6.87
36524;BME280;66329;46.796;9.824;2022-12-29T20:37:02;84367.34;;;24.89;6.88
36524;BME280;66329;46.796;9.824;2022-12-29T20:39:30;84370.34;;;24.89;6.88
36524;BME280;66329;46.796;9.824;2022-12-29T20:41:57;84367.59;;;24.42;6.86
36524;BME280;66329;46.796;9.824;2022-12-29T20:44:25;84371.61;;;24.43;6.85
36524;BME280;66329;46.796;9.824;2022-12-29T20:46:52;84374.92;;;24.07;6.83
36524;BME280;66329;46.796;9.824;2022-12-29T20:49:19;84376.41;;;24.99;6.86
36524;BME280;66329;46.796;9.824;2022-12-29T20:51:46;84378.60;;;24.47;6.84
36524;BME280;66329;46.796;9.824;2022-12-29T20:54:14;84381.37;;;24.50;6.84
36524;BME280;66329;46.796;9.824;2022-12-29T20:56:41;84377.89;;;24.48;6.85
36524;BME280;66329;46.796;9.824;2022-12-29T20:59:08;84375.53;;;25.00;6.84
36524;BME280;66329;46.796;9.824;2022-12-29T21:01:36;84374.04;;;25.42;6.85
36524;BME280;66329;46.796;9.824;2022-12-29T21:04:04;84376.26;;;24.53;6.83
36524;BME280;66329;46.796;9.824;2022-12-29T21:06:32;84373.55;;;24.49;6.83
36524;BME280;66329;46.796;9.824;2022-12-29T21:09:00;84374.56;;;25.39;6.84
36524;BME280;66329;46.796;9.824;2022-12-29T21:11:28;84377.51;;;24.44;6.85
36524;BME280;66329;46.796;9.824;2022-12-29T21:13:54;84378.99;;;24.44;6.85
36524;BME280;66329;46.796;9.824;2022-12-29T21:16:22;84379.53;;;24.95;6.85
36524;BME280;66329;46.796;9.824;2022-12-29T21:18:49;84377.44;;;24.49;6.83
36524;BME280;66329;46.796;9.824;2022-12-29T21:21:18;84376.58;;;24.99;6.84
36524;BME280;66329;46.796;9.824;2022-12-29T21:23:46;84371.33;;;24.54;6.82
36524;BME280;66329;46.796;9.824;2022-12-29T21:26:14;84370.24;;;24.55;6.80
36524;BME280;66329;46.796;9.824;2022-12-29T21:28:42;84369.41;;;24.52;6.81
36524;BME280;66329;46.796;9.824;2022-12-29T21:31:10;84369.83;;;24.53;6.81
36524;BME280;66329;46.796;9.824;2022-12-29T21:33:38;84368.06;;;24.49;6.82
36524;BME280;66329;46.796;9.824;2022-12-29T21:36:07;84368.36;;;24.48;6.83
36524;BME280;66329;46.796;9.824;2022-12-29T21:38:35;84365.08;;;24.94;6.85
36524;BME280;66329;46.796;9.824;2022-12-29T21:41:11;84366.41;;;24.51;6.83
36524;BME280;66329;46.796;9.824;2022-12-29T21:43:38;84370.40;;;24.52;6.83
36524;BME280;66329;46.796;9.824;2022-12-29T21:46:05;84374.26;;;24.47;6.82
36524;BME280;66329;46.796;9.824;2022-12-29T21:48:34;84373.79;;;24.51;6.79
36524;BME280;66329;46.796;9.824;2022-12-29T21:51:06;84374.82;;;24.48;6.81
36524;BME280;66329;46.796;9.824;2022-12-29T21:53:35;84380.92;;;24.46;6.88
36524;BME280;66329;46.796;9.824;2022-12-29T21:56:09;84381.02;;;24.98;6.84
36524;BME280;66329;46.796;9.824;2022-12-29T21:58:38;84379.31;;;25.40;6.84
36524;BME280;66329;46.796;9.824;2022-12-29T22:01:10;84381.28;;;24.96;6.86
36524;BME280;66329;46.796;9.824;2022-12-29T22:03:37;84376.18;;;24.47;6.86
36524;BME280;66329;46.796;9.824;2022-12-29T22:06:09;84373.67;;;25.00;6.85
36524;BME280;66329;46.796;9.824;2022-12-29T22:08:37;84374.42;;;24.47;6.85
36524;BME280;66329;46.796;9.824;2022-12-29T22:11:06;84377.85;;;24.46;6.85
36524;BME280;66329;46.796;9.824;2022-12-29T22:13:36;84374.78;;;24.40;6.87
36524;BME280;66329;46.796;9.824;2022-12-29T22:16:05;84374.53;;;24.42;6.87
36524;BME280;66329;46.796;9.824;2022-12-29T22:18:33;84372.64;;;24.45;6.84
36524;BME280;66329;46.796;9.824;2022-12-29T22:21:02;84372.71;;;24.47;6.84
36524;BME280;66329;46.796;9.824;2022-12-29T22:23:29;84374.26;;;24.42;6.85
36524;BME280;66329;46.796;9.824;2022-12-29T22:25:56;84375.95;;;24.44;6.83
36524;BME280;66329;46.796;9.824;2022-12-29T22:28:23;84379.15;;;24.88;6.84
36524;BME280;66329;46.796;9.824;2022-12-29T22:30:51;84380.57;;;24.41;6.83
36524;BME280;66329;46.796;9.824;2022-12-29T22:33:17;84377.94;;;24.41;6.83
36524;BME280;66329;46.796;9.824;2022-12-29T22:35:45;84385.75;;;24.89;6.83
36524;BME280;66329;46.796;9.824;2022-12-29T22:38:12;84384.94;;;25.29;6.83
36524;BME280;66329;46.796;9.824;2022-12-29T22:40:39;84379.19;;;25.31;6.82
36524;BME280;66329;46.796;9.824;2022-12-29T22:43:06;84386.20;;;24.32;6.84
36524;BME280;66329;46.796;9.824;2022-12-29T22:45:33;84389.88;;;23.87;6.83
36524;BME280;66329;46.796;9.824;2022-12-29T22:48:00;84390.93;;;25.25;6.82
36524;BME280;66329;46.796;9.824;2022-12-29T22:50:27;84391.08;;;24.84;6.82
36524;BME280;66329;46.796;9.824;2022-12-29T22:52:54;84384.92;;;24.34;6.82
36524;BME280;66329;46.796;9.824;2022-12-29T22:55:22;84382.81;;;24.86;6.81
36524;BME280;66329;46.796;9.824;2022-12-29T22:57:49;84383.26;;;24.35;6.81
36524;BME280;66329;46.796;9.824;2022-12-29T23:00:16;84383.94;;;25.21;6.82
36524;BME280;66329;46.796;9.824;2022-12-29T23:02:44;84381.27;;;24.84;6.81
36524;BME280;66329;46.796;9.824;2022-12-29T23:05:11;84379.42;;;25.20;6.81
36524;BME280;66329;46.796;9.824;2022-12-29T23:07:38;84371.34;;;24.78;6.81
36524;BME280;66329;46.796;9.824;2022-12-29T23:10:06;84368.12;;;24.85;6.80
36524;BME280;66329;46.796;9.824;2022-12-29T23:12:34;84366.16;;;24.82;6.79
36524;BME280;66329;46.796;9.824;2022-12-29T23:15:01;84364.10;;;24.83;6.79
36524;BME280;66329;46.796;9.824;2022-12-29T23:17:28;84362.57;;;24.80;6.80
36524;BME280;66329;46.796;9.824;2022-12-29T23:19:56;84359.99;;;24.78;6.78
36524;BME280;66329;46.796;9.824;2022-12-29T23:22:23;84356.68;;;24.31;6.79
36524;BME280;66329;46.796;9.824;2022-12-29T23:24:50;84347.11;;;24.86;6.78
36524;BME280;66329;46.796;9.824;2022-12-29T23:27:17;84341.28;;;24.27;6.79
36524;BME280;66329;46.796;9.824;2022-12-29T23:29:44;84343.40;;;25.26;6.77
36524;BME280;66329;46.796;9.824;2022-12-29T23:32:11;84341.38;;;24.29;6.77
36524;BME280;66329;46.796;9.824;2022-12-29T23:34:38;84337.48;;;25.21;6.78
36524;BME280;66329;46.796;9.824;2022-12-29T23:37:05;84332.51;;;24.89;6.74
36524;BME280;66329;46.796;9.824;2022-12-29T23:39:32;84332.26;;;24.80;6.79
36524;BME280;66329;46.796;9.824;2022-12-29T23:42:00;84335.00;;;24.77;6.78
36524;BME280;66329;46.796;9.824;2022-12-29T23:44:27;84336.16;;;24.27;6.79
36524;BME280;66329;46.796;9.824;2022-12-29T23:46:54;84337.49;;;24.28;6.78
36524;BME280;66329;46.796;9.824;2022-12-29T23:49:21;84340.28;;;24.79;6.78
36524;BME280;66329;46.796;9.824;2022-12-29T23:51:48;84348.55;;;24.81;6.78
36524;BME280;66329;46.796;9.824;2022-12-29T23:54:15;84351.24;;;24.84;6.76
36524;BME280;66329;46.796;9.824;2022-12-29T23:56:42;84347.63;;;24.36;6.75
36524;BME280;66329;46.796;9.824;2022-12-29T23:59:09;84346.84;;;24.81;6.76
